createdAt,value
2023-04-29T00:01:26.110Z,0.88
2023-04-29T00:03:54.198Z,1.05
2023-04-29T00:06:21.885Z,0.90
2023-04-29T00:08:49.100Z,0.90
2023-04-29T00:11:16.349Z,0.80
2023-04-29T00:13:43.521Z,0.90
2023-04-29T00:16:10.604Z,0.95
2023-04-29T00:18:38.145Z,0.60
2023-04-29T00:21:08.729Z,0.98
2023-04-29T00:23:36.184Z,0.80
2023-04-29T00:26:03.609Z,0.85
2023-04-29T00:28:30.688Z,0.82
2023-04-29T00:30:58.119Z,0.90
2023-04-29T00:33:25.462Z,0.90
2023-04-29T00:35:52.591Z,0.70
2023-04-29T00:38:19.687Z,1.15
2023-04-29T00:40:47.003Z,1.08
2023-04-29T00:43:14.109Z,1.10
2023-04-29T00:45:41.301Z,0.90
2023-04-29T00:48:08.446Z,0.90
2023-04-29T00:50:36.913Z,1.20
2023-04-29T00:53:04.546Z,0.75
2023-04-29T00:55:34.167Z,0.90
2023-04-29T00:58:03.029Z,0.63
2023-04-29T01:00:30.995Z,1.08
2023-04-29T01:02:59.878Z,0.90
2023-04-29T01:05:27.442Z,0.90
2023-04-29T01:08:27.219Z,0.90
2023-04-29T01:11:10.966Z,0.80
2023-04-29T01:13:51.061Z,0.82
2023-04-29T01:16:29.986Z,0.80
2023-04-29T01:19:01.536Z,0.90
2023-04-29T01:21:28.751Z,0.77
2023-04-29T01:23:58.800Z,0.80
2023-04-29T01:26:27.331Z,0.70
2023-04-29T01:29:34.122Z,0.80
2023-04-29T01:32:11.804Z,0.90
2023-04-29T01:34:59.968Z,0.82
2023-04-29T01:37:45.532Z,1.00
2023-04-29T01:40:19.727Z,0.80
2023-04-29T01:42:53.759Z,0.70
2023-04-29T01:45:22.880Z,0.80
2023-04-29T01:47:53.827Z,0.95
2023-04-29T01:50:21.437Z,0.90
2023-04-29T01:52:48.731Z,0.65
2023-04-29T01:55:15.907Z,0.63
2023-04-29T01:57:43.105Z,0.93
2023-04-29T02:00:11.769Z,1.02
2023-04-29T02:02:38.965Z,0.63
2023-04-29T02:05:06.312Z,1.00
2023-04-29T02:07:33.423Z,0.88
2023-04-29T02:10:00.966Z,0.80
2023-04-29T02:12:28.085Z,0.93
2023-04-29T02:14:55.109Z,0.80
2023-04-29T02:17:22.333Z,0.90
2023-04-29T02:19:49.509Z,0.95
2023-04-29T02:22:17.191Z,0.65
2023-04-29T02:24:44.290Z,0.75
2023-04-29T02:27:11.385Z,0.70
2023-04-29T02:29:38.477Z,0.93
2023-04-29T02:32:06.544Z,0.85
2023-04-29T02:34:33.731Z,0.80
2023-04-29T02:37:00.887Z,0.80
2023-04-29T02:39:28.048Z,1.05
2023-04-29T02:41:56.454Z,0.90
2023-04-29T02:44:23.586Z,0.93
2023-04-29T02:46:50.713Z,0.80
2023-04-29T02:49:17.890Z,0.70
2023-04-29T02:51:44.979Z,0.93
2023-04-29T02:54:12.435Z,0.63
2023-04-29T02:56:39.496Z,0.82
2023-04-29T02:59:06.584Z,0.77
2023-04-29T03:01:33.734Z,0.85
2023-04-29T03:04:01.112Z,0.88
2023-04-29T03:06:28.931Z,0.73
2023-04-29T03:08:57.819Z,0.80
2023-04-29T03:11:25.217Z,0.80
2023-04-29T03:13:52.377Z,0.80
2023-04-29T03:16:19.424Z,0.82
2023-04-29T03:18:47.128Z,0.90
2023-04-29T03:21:14.232Z,0.90
2023-04-29T03:23:41.361Z,0.82
2023-04-29T03:26:09.229Z,0.70
2023-04-29T03:28:36.383Z,0.98
2023-04-29T03:31:03.467Z,0.82
2023-04-29T03:33:30.670Z,0.75
2023-04-29T03:35:57.718Z,0.63
2023-04-29T03:38:26.192Z,0.75
2023-04-29T03:40:53.286Z,0.75
2023-04-29T03:43:20.473Z,0.80
2023-04-29T03:45:47.624Z,1.10
2023-04-29T03:48:14.876Z,1.02
2023-04-29T03:50:42.005Z,1.00
2023-04-29T03:53:09.183Z,1.17
2023-04-29T03:55:36.607Z,1.00
2023-04-29T03:58:03.690Z,0.80
2023-04-29T04:00:32.064Z,0.73
2023-04-29T04:02:59.829Z,0.68
2023-04-29T04:05:27.967Z,0.90
2023-04-29T04:07:55.350Z,0.75
2023-04-29T04:10:22.565Z,1.15
2023-04-29T04:12:49.690Z,0.90
2023-04-29T04:15:17.279Z,0.90
2023-04-29T04:17:44.500Z,0.88
2023-04-29T04:20:12.368Z,0.70
2023-04-29T04:22:39.525Z,0.95
2023-04-29T04:25:07.393Z,0.70
2023-04-29T04:27:34.554Z,1.08
2023-04-29T04:30:01.668Z,0.75
2023-04-29T04:32:29.020Z,0.90
2023-04-29T04:34:56.186Z,0.70
2023-04-29T04:37:23.323Z,1.00
2023-04-29T04:39:50.766Z,0.95
2023-04-29T04:42:17.970Z,1.05
2023-04-29T04:44:45.040Z,1.27
2023-04-29T04:47:12.124Z,1.25
2023-04-29T04:49:39.208Z,0.93
2023-04-29T04:52:06.696Z,1.17
2023-04-29T04:54:33.925Z,1.13
2023-04-29T04:57:01.226Z,1.02
2023-04-29T04:59:28.342Z,1.08
2023-04-29T05:01:55.628Z,1.35
2023-04-29T05:04:22.918Z,1.60
2023-04-29T05:06:50.087Z,1.30
2023-04-29T05:09:17.205Z,1.08
2023-04-29T05:11:44.286Z,1.20
2023-04-29T05:14:11.952Z,1.20
2023-04-29T05:16:39.191Z,1.05
2023-04-29T05:19:06.578Z,1.05
2023-04-29T05:21:33.736Z,1.38
2023-04-29T05:24:00.854Z,1.20
2023-04-29T05:26:28.016Z,1.42
2023-04-29T05:28:55.545Z,1.05
2023-04-29T05:31:22.714Z,1.20
2023-04-29T05:33:49.770Z,1.30
2023-04-29T05:36:16.886Z,1.30
2023-04-29T05:38:45.439Z,1.55
2023-04-29T05:41:14.334Z,1.50
2023-04-29T05:43:41.520Z,1.45
2023-04-29T05:46:08.670Z,1.67
2023-04-29T05:48:35.781Z,1.88
2023-04-29T05:51:02.902Z,1.60
2023-04-29T05:53:30.062Z,1.90
2023-04-29T05:55:57.245Z,1.40
2023-04-29T05:58:25.756Z,1.95
2023-04-29T06:00:52.833Z,1.75
2023-04-29T06:03:20.159Z,1.77
2023-04-29T06:05:47.701Z,1.88
2023-04-29T06:08:15.089Z,1.70
2023-04-29T06:10:42.107Z,2.10
2023-04-29T06:13:09.305Z,1.73
2023-04-29T06:15:36.502Z,2.15
2023-04-29T06:18:03.785Z,2.20
2023-04-29T06:20:31.055Z,1.65
2023-04-29T06:22:58.157Z,1.25
2023-04-29T06:25:25.251Z,2.15
2023-04-29T06:27:52.326Z,1.85
2023-04-29T06:30:19.499Z,1.73
2023-04-29T06:32:46.800Z,1.60
2023-04-29T06:35:13.991Z,2.28
2023-04-29T06:37:41.043Z,1.92
2023-04-29T06:40:08.851Z,1.88
2023-04-29T06:42:36.960Z,2.13
2023-04-29T06:45:05.053Z,1.65
2023-04-29T06:47:33.212Z,1.80
2023-04-29T06:50:00.594Z,2.00
2023-04-29T06:52:27.670Z,1.90
2023-04-29T06:54:54.788Z,1.83
2023-04-29T06:57:22.046Z,2.00
2023-04-29T06:59:49.169Z,2.03
2023-04-29T07:02:16.581Z,1.90
2023-04-29T07:04:43.810Z,1.80
2023-04-29T07:07:11.042Z,1.63
2023-04-29T07:09:38.425Z,1.83
2023-04-29T07:12:05.766Z,1.80
2023-04-29T07:14:33.200Z,1.77
2023-04-29T07:17:00.625Z,2.00
2023-04-29T07:19:27.843Z,1.90
2023-04-29T07:21:54.948Z,2.20
2023-04-29T07:24:23.540Z,1.95
2023-04-29T07:26:50.789Z,1.80
2023-04-29T07:29:17.886Z,1.95
2023-04-29T07:31:44.974Z,1.83
2023-04-29T07:34:12.614Z,1.70
2023-04-29T07:36:39.825Z,1.77
2023-04-29T07:39:06.858Z,1.92
2023-04-29T07:41:33.985Z,1.65
2023-04-29T07:44:01.078Z,1.98
2023-04-29T07:46:28.686Z,2.15
2023-04-29T07:48:55.924Z,1.85
2023-04-29T07:51:23.018Z,1.48
2023-04-29T07:53:50.681Z,2.03
2023-04-29T07:56:17.843Z,2.08
2023-04-29T07:58:44.927Z,1.92
2023-04-29T08:01:12.469Z,1.90
2023-04-29T08:03:41.387Z,1.55
2023-04-29T08:06:09.421Z,1.75
2023-04-29T08:08:36.678Z,1.80
2023-04-29T08:11:04.049Z,1.60
2023-04-29T08:13:31.257Z,1.55
2023-04-29T08:15:58.329Z,1.88
2023-04-29T08:18:25.564Z,2.00
2023-04-29T08:20:52.639Z,1.83
2023-04-29T08:23:19.736Z,1.55
2023-04-29T08:25:47.574Z,1.83
2023-04-29T08:28:14.753Z,1.50
2023-04-29T08:30:42.109Z,1.83
2023-04-29T08:33:09.683Z,2.17
2023-04-29T08:35:39.754Z,1.50
2023-04-29T08:38:07.318Z,1.55
2023-04-29T08:40:35.997Z,1.73
2023-04-29T08:43:05.191Z,1.80
2023-04-29T08:45:34.315Z,1.35
2023-04-29T08:48:04.166Z,1.13
2023-04-29T08:50:33.057Z,1.35
2023-04-29T08:53:00.202Z,1.40
2023-04-29T08:55:27.753Z,2.05
2023-04-29T08:57:57.042Z,1.98
2023-04-29T09:00:25.122Z,1.77
2023-04-29T09:02:55.808Z,1.40
2023-04-29T09:05:23.684Z,2.00
2023-04-29T09:07:52.845Z,1.65
2023-04-29T09:10:20.768Z,1.95
2023-04-29T09:12:47.893Z,1.65
2023-04-29T09:15:15.088Z,1.42
2023-04-29T09:17:47.212Z,1.50
2023-04-29T09:20:28.266Z,1.67
2023-04-29T09:22:58.216Z,1.80
2023-04-29T09:25:27.317Z,1.52
2023-04-29T09:27:55.767Z,1.52
2023-04-29T09:30:23.637Z,2.17
2023-04-29T09:33:09.055Z,1.23
2023-04-29T09:35:36.599Z,1.80
2023-04-29T09:38:13.522Z,1.60
2023-04-29T09:40:57.441Z,1.67
2023-04-29T09:43:26.413Z,1.70
2023-04-29T09:45:53.678Z,1.30
2023-04-29T09:48:20.960Z,1.60
2023-04-29T09:51:05.635Z,1.48
2023-04-29T09:53:32.817Z,1.55
2023-04-29T09:56:03.907Z,1.83
2023-04-29T09:58:39.124Z,1.75
2023-04-29T10:01:07.608Z,1.40
2023-04-29T10:03:37.445Z,1.65
2023-04-29T10:08:34.557Z,1.30
2023-04-29T10:11:04.356Z,1.55
2023-04-29T10:13:33.324Z,1.45
2023-04-29T10:16:30.482Z,1.60
2023-04-29T10:19:00.664Z,1.63
2023-04-29T10:21:31.247Z,1.90
2023-04-29T10:24:02.187Z,1.55
2023-04-29T10:26:30.185Z,1.50
2023-04-29T10:28:58.130Z,1.58
2023-04-29T10:31:28.750Z,1.23
2023-04-29T10:34:01.935Z,1.65
2023-04-29T10:36:31.677Z,1.42
2023-04-29T10:39:06.190Z,1.23
2023-04-29T10:41:47.059Z,1.70
2023-04-29T10:44:14.631Z,1.58
2023-04-29T10:46:41.756Z,1.30
2023-04-29T10:49:10.833Z,1.77
2023-04-29T10:51:43.167Z,1.60
2023-04-29T10:54:15.748Z,1.40
2023-04-29T10:56:54.662Z,1.40
2023-04-29T10:59:46.171Z,1.13
2023-04-29T11:02:15.084Z,1.45
2023-04-29T11:05:09.802Z,1.48
2023-04-29T11:07:37.050Z,1.05
2023-04-29T11:10:04.652Z,1.45
2023-04-29T11:12:31.719Z,1.45
2023-04-29T11:15:03.476Z,1.30
2023-04-29T11:17:36.832Z,1.27
2023-04-29T11:20:04.412Z,1.50
2023-04-29T11:22:34.004Z,1.35
2023-04-29T11:25:06.967Z,1.23
2023-04-29T11:27:40.051Z,1.50
2023-04-29T11:30:08.312Z,1.40
2023-04-29T11:32:42.948Z,1.35
2023-04-29T11:35:19.818Z,1.30
2023-04-29T11:37:47.755Z,1.13
2023-04-29T11:40:15.761Z,1.10
2023-04-29T11:42:49.361Z,1.00
2023-04-29T11:45:20.201Z,1.23
2023-04-29T11:47:49.133Z,0.98
2023-04-29T11:50:19.783Z,1.10
2023-04-29T11:52:48.482Z,1.13
2023-04-29T11:55:16.132Z,1.13
2023-04-29T11:57:43.896Z,1.17
2023-04-29T12:00:13.155Z,1.08
2023-04-29T12:02:45.083Z,1.03
2023-04-29T12:05:13.691Z,1.00
2023-04-29T12:07:41.441Z,1.40
2023-04-29T12:10:11.407Z,0.98
2023-04-29T12:12:41.462Z,0.80
2023-04-29T12:15:10.551Z,0.90
2023-04-29T12:17:38.486Z,1.23
2023-04-29T12:20:07.758Z,1.08
2023-04-29T12:22:35.119Z,1.00
2023-04-29T12:25:05.778Z,0.88
2023-04-29T12:27:34.522Z,1.17
2023-04-29T12:30:01.699Z,0.75
2023-04-29T12:32:28.841Z,0.70
2023-04-29T12:34:56.502Z,0.98
2023-04-29T12:37:23.956Z,1.00
2023-04-29T12:39:51.540Z,0.93
2023-04-29T12:42:18.830Z,0.90
2023-04-29T12:44:50.122Z,0.82
2023-04-29T12:47:17.799Z,0.82
2023-04-29T12:49:49.292Z,0.98
2023-04-29T12:52:16.504Z,0.70
2023-04-29T12:54:46.995Z,0.80
2023-04-29T12:57:14.533Z,0.85
2023-04-29T12:59:41.730Z,0.73
2023-04-29T13:02:09.238Z,0.95
2023-04-29T13:04:36.587Z,0.75
2023-04-29T13:07:04.558Z,0.63
2023-04-29T13:09:31.766Z,0.57
2023-04-29T13:11:59.695Z,0.85
2023-04-29T13:14:27.149Z,0.90
2023-04-29T13:16:54.332Z,0.70
2023-04-29T13:21:52.509Z,0.88
2023-04-29T13:24:20.449Z,0.70
2023-04-29T13:26:50.225Z,0.70
2023-04-29T13:29:18.818Z,0.77
2023-04-29T13:31:46.082Z,0.65
2023-04-29T13:34:13.277Z,0.65
2023-04-29T13:36:40.569Z,0.88
2023-04-29T13:39:07.588Z,0.60
2023-04-29T13:41:35.560Z,0.68
2023-04-29T13:44:04.907Z,0.52
2023-04-29T13:46:34.821Z,0.82
2023-04-29T13:49:29.366Z,0.70
2023-04-29T14:06:48.817Z,0.55
2023-04-29T14:09:17.030Z,0.88
2023-04-29T14:11:44.240Z,0.52
2023-04-29T14:14:11.273Z,0.50
2023-04-29T14:16:38.486Z,0.70
2023-04-29T14:19:05.618Z,0.77
2023-04-29T14:21:33.670Z,0.88
2023-04-29T14:24:02.775Z,0.77
2023-04-29T14:26:31.180Z,0.70
2023-04-29T14:29:00.037Z,0.50
2023-04-29T14:31:35.618Z,0.50
2023-04-29T14:34:02.801Z,0.50
2023-04-29T14:36:30.395Z,0.60
2023-04-29T14:38:57.469Z,0.80
2023-04-29T14:41:25.266Z,0.40
2023-04-29T14:43:52.402Z,0.30
2023-04-29T14:46:20.326Z,0.57
2023-04-29T14:48:47.528Z,0.82
2023-04-29T14:51:14.651Z,0.50
2023-04-29T14:53:41.809Z,0.57
2023-04-29T14:56:08.945Z,0.75
2023-04-29T14:58:36.055Z,0.50
2023-04-29T15:01:03.123Z,0.45
2023-04-29T15:03:30.429Z,0.50
2023-04-29T15:05:58.205Z,0.60
2023-04-29T15:08:25.336Z,0.60
2023-04-29T15:10:52.515Z,0.50
2023-04-29T15:13:19.713Z,0.75
2023-04-29T15:15:46.856Z,0.68
2023-04-29T15:18:14.135Z,0.50
2023-04-29T15:20:41.442Z,0.50
2023-04-29T15:23:08.964Z,0.50
2023-04-29T15:25:36.445Z,0.40
2023-04-29T15:28:04.977Z,0.35
2023-04-29T15:30:32.561Z,0.50
2023-04-29T15:33:00.133Z,0.50
2023-04-29T15:35:27.911Z,0.40
2023-04-29T15:37:55.020Z,0.47
2023-04-29T15:40:22.307Z,0.60
2023-04-29T15:42:49.396Z,0.65
2023-04-29T15:45:17.180Z,0.70
2023-04-29T15:47:44.368Z,0.65
2023-04-29T15:50:11.679Z,0.30
2023-04-29T15:52:38.829Z,0.70
2023-04-29T15:55:07.209Z,0.60
2023-04-29T15:57:42.330Z,0.50
2023-04-29T16:00:10.050Z,0.50
2023-04-29T16:02:37.303Z,0.52
2023-04-29T16:05:05.035Z,0.55
2023-04-29T16:07:33.625Z,0.60
2023-04-29T16:10:04.501Z,0.52
2023-04-29T16:12:31.628Z,0.50
2023-04-29T16:14:58.958Z,0.43
2023-04-29T16:17:26.544Z,0.40
2023-04-29T16:19:54.173Z,0.60
2023-04-29T16:22:21.427Z,0.35
2023-04-29T16:24:49.865Z,0.60
2023-04-29T16:27:17.828Z,0.50
2023-04-29T16:29:44.902Z,0.52
2023-04-29T16:32:11.997Z,0.65
2023-04-29T16:34:39.227Z,0.40
2023-04-29T16:37:12.435Z,0.45
2023-04-29T16:39:40.346Z,0.60
2023-04-29T16:42:07.663Z,0.50
2023-04-29T16:44:34.866Z,0.60
2023-04-29T16:47:03.169Z,0.50
2023-04-29T16:49:31.354Z,0.30
2023-04-29T16:51:58.743Z,0.45
2023-04-29T16:54:26.653Z,0.47
2023-04-29T16:56:54.027Z,0.52
2023-04-29T16:59:21.158Z,0.50
2023-04-29T17:01:48.308Z,0.75
2023-04-29T17:04:15.579Z,0.40
2023-04-29T17:06:43.133Z,0.60
2023-04-29T17:09:10.388Z,0.40
2023-04-29T17:11:37.575Z,0.40
2023-04-29T17:14:04.876Z,0.40
2023-04-29T17:16:33.249Z,0.50
2023-04-29T17:19:00.462Z,0.50
2023-04-29T17:21:30.680Z,0.30
2023-04-29T17:26:26.434Z,0.57
2023-04-29T17:28:53.679Z,0.40
2023-04-29T17:31:25.349Z,0.50
2023-04-29T17:34:05.177Z,0.80
2023-04-29T17:36:33.472Z,0.60
2023-04-29T17:39:00.674Z,0.32
2023-04-29T17:41:27.823Z,0.30
2023-04-29T17:43:54.929Z,0.70
2023-04-29T17:46:22.107Z,0.50
2023-04-29T17:48:49.276Z,0.38
2023-04-29T17:51:16.400Z,0.32
2023-04-29T17:53:43.604Z,0.20
2023-04-29T17:56:10.751Z,0.30
2023-04-29T17:58:38.314Z,0.35
2023-04-29T18:01:06.490Z,0.28
2023-04-29T18:03:33.769Z,0.40
2023-04-29T18:06:01.045Z,0.30
2023-04-29T18:08:28.219Z,0.32
2023-04-29T18:10:55.312Z,0.50
2023-04-29T18:13:23.219Z,0.57
2023-04-29T18:15:51.763Z,0.47
2023-04-29T18:18:18.909Z,0.50
2023-04-29T18:20:46.062Z,0.47
2023-04-29T18:23:14.201Z,0.30
2023-04-29T18:25:41.550Z,0.93
2023-04-29T18:28:24.112Z,0.40
2023-04-29T18:30:52.475Z,0.35
2023-04-29T18:33:19.873Z,0.30
2023-04-29T18:35:47.186Z,0.30
2023-04-29T18:38:17.477Z,0.63
2023-04-29T18:40:45.261Z,0.50
2023-04-29T18:43:15.364Z,0.40
2023-04-29T18:45:42.495Z,0.38
2023-04-29T18:48:12.731Z,0.40
2023-04-29T18:53:08.310Z,0.45
2023-04-29T18:55:36.111Z,0.35
2023-04-29T18:58:03.372Z,0.50
2023-04-29T19:00:30.735Z,0.32
2023-04-29T19:02:57.923Z,0.40
2023-04-29T19:05:25.030Z,0.40
2023-04-29T19:07:52.084Z,0.40
2023-04-29T19:10:19.245Z,0.30
2023-04-29T19:12:46.531Z,0.30
2023-04-29T19:15:13.727Z,0.40
2023-04-29T19:17:41.056Z,0.60
2023-04-29T19:20:10.146Z,0.30
2023-04-29T19:22:37.679Z,0.30
2023-04-29T19:25:05.495Z,0.40
2023-04-29T19:27:32.569Z,0.43
2023-04-29T19:29:59.617Z,0.50
2023-04-29T19:32:28.812Z,0.63
2023-04-29T19:34:57.137Z,0.55
2023-04-29T19:37:24.239Z,0.60
2023-04-29T19:39:51.340Z,0.50
2023-04-29T19:42:18.425Z,0.43
2023-04-29T19:44:45.784Z,0.70
2023-04-29T19:47:12.833Z,0.45
2023-04-29T19:49:39.977Z,0.50
2023-04-29T19:52:07.619Z,0.60
2023-04-29T19:54:38.355Z,0.45
2023-04-29T19:57:05.954Z,0.70
2023-04-29T19:59:33.091Z,0.50
2023-04-29T20:02:00.246Z,0.50
2023-04-29T20:04:27.397Z,0.80
2023-04-29T20:06:54.496Z,0.45
2023-04-29T20:09:21.711Z,0.47
2023-04-29T20:11:48.835Z,0.80
2023-04-29T20:14:15.909Z,0.60
2023-04-29T20:16:43.120Z,0.60
2023-04-29T20:19:10.471Z,0.73
2023-04-29T20:21:39.818Z,0.80
2023-04-29T20:24:08.250Z,1.20
2023-04-29T20:26:35.489Z,0.65
2023-04-29T20:29:02.537Z,0.70
2023-04-29T20:31:29.701Z,0.80
2023-04-29T20:33:56.811Z,0.65
2023-04-29T20:36:26.179Z,1.02
2023-04-29T20:38:53.238Z,1.00
2023-04-29T20:41:20.950Z,0.82
2023-04-29T20:43:48.064Z,0.85
2023-04-29T20:46:16.465Z,0.90
2023-04-29T20:48:43.539Z,1.00
2023-04-29T20:51:12.372Z,0.73
2023-04-29T20:53:39.672Z,0.70
2023-04-29T20:56:08.714Z,0.80
2023-04-29T20:58:35.923Z,0.95
2023-04-29T21:01:03.437Z,0.82
2023-04-29T21:03:30.904Z,0.85
2023-04-29T21:05:58.164Z,0.80
2023-04-29T21:08:25.351Z,0.90
2023-04-29T21:10:52.492Z,0.63
2023-04-29T21:13:19.609Z,1.00
2023-04-29T21:15:46.848Z,1.30
2023-04-29T21:18:14.517Z,1.05
2023-04-29T21:20:41.641Z,0.95
2023-04-29T21:23:09.006Z,0.98
2023-04-29T21:25:36.140Z,1.13
2023-04-29T21:28:04.073Z,0.98
2023-04-29T21:30:31.243Z,1.10
2023-04-29T21:32:58.432Z,1.08
2023-04-29T21:35:27.064Z,1.20
2023-04-29T21:37:54.192Z,1.00
2023-04-29T21:40:21.483Z,0.98
2023-04-29T21:42:49.595Z,1.13
2023-04-29T21:45:17.595Z,1.02
2023-04-29T21:47:45.262Z,1.45
2023-04-29T21:50:12.486Z,0.88
2023-04-29T21:52:39.849Z,0.98
2023-04-29T21:55:07.158Z,1.17
2023-04-29T21:57:43.394Z,1.00
2023-04-29T22:00:28.411Z,1.60
2023-04-29T22:02:55.825Z,1.02
2023-04-29T22:05:22.993Z,1.42
2023-04-29T22:07:50.076Z,1.10
2023-04-29T22:10:17.218Z,1.23
2023-04-29T22:12:44.546Z,1.10
2023-04-29T22:15:24.589Z,1.40
2023-04-29T22:17:55.024Z,1.20
2023-04-29T22:20:22.161Z,1.42
2023-04-29T22:22:49.260Z,1.27
2023-04-29T22:25:16.495Z,1.23
2023-04-29T22:27:43.624Z,1.33
2023-04-29T22:30:11.199Z,1.50
2023-04-29T22:32:38.404Z,1.30
2023-04-29T22:35:06.384Z,1.20
2023-04-29T22:37:33.611Z,1.17
2023-04-29T22:40:00.977Z,1.20
2023-04-29T22:42:28.104Z,1.10
2023-04-29T22:44:55.167Z,1.50
2023-04-29T22:47:22.238Z,1.40
2023-04-29T22:49:49.293Z,1.60
2023-04-29T22:52:16.341Z,1.10
2023-04-29T22:54:43.468Z,1.38
2023-04-29T22:57:10.664Z,1.40
2023-04-29T22:59:37.726Z,1.50
2023-04-29T23:02:04.797Z,1.10
2023-04-29T23:04:33.534Z,1.20
2023-04-29T23:07:00.766Z,1.10
2023-04-29T23:09:27.824Z,1.45
2023-04-29T23:11:54.953Z,1.30
2023-04-29T23:14:22.093Z,1.20
2023-04-29T23:16:49.275Z,1.30
2023-04-29T23:19:16.527Z,1.00
2023-04-29T23:21:43.751Z,1.20
2023-04-29T23:24:11.034Z,1.10
2023-04-29T23:26:38.144Z,1.33
2023-04-29T23:29:05.206Z,1.60
2023-04-29T23:31:32.283Z,1.40
2023-04-29T23:33:59.903Z,1.40
2023-04-29T23:36:27.724Z,1.33
2023-04-29T23:38:54.798Z,1.40
2023-04-29T23:41:21.932Z,1.05
2023-04-29T23:43:48.991Z,0.85
2023-04-29T23:46:16.096Z,1.45
2023-04-29T23:48:43.250Z,1.50
2023-04-29T23:51:10.453Z,0.93
2023-04-29T23:53:39.086Z,1.20
2023-04-29T23:56:06.534Z,1.40
2023-04-29T23:58:33.598Z,1.10
